sensor_id;sensor_type;location;lat;lon;timestamp;pressure;altitude;pressure_sealevel;temperature;humidity
41596;BME280;27283;52.504;13.358;2023-03-14T00:00:20;98868.88;;;12.31;80.27
41596;BME280;27283;52.504;13.358;2023-03-14T00:03:12;98879.13;;;12.40;79.64
41596;BME280;27283;52.504;13.358;2023-03-14T00:05:47;98873.59;;;12.35;79.60
41596;BME280;27283;52.504;13.358;2023-03-14T00:08:19;98865.84;;;12.20;79.93
41596;BME280;27283;52.504;13.358;2023-03-14T00:11:22;98856.28;;;12.25;80.00
41596;BME280;27283;52.504;13.358;2023-03-14T00:13:54;98859.00;;;12.25;79.76
41596;BME280;27283;52.504;13.358;2023-03-14T00:16:27;98845.97;;;12.21;79.99
41596;BME280;27283;52.504;13.358;2023-03-14T00:18:59;98828.63;;;12.11;80.31
41596;BME280;27283;52.504;13.358;2023-03-14T00:21:34;98839.41;;;12.11;80.33
41596;BME280;27283;52.504;13.358;2023-03-14T00:24:07;98827.00;;;12.10;80.59
41596;BME280;27283;52.504;13.358;2023-03-14T00:26:40;98816.81;;;12.12;79.89
41596;BME280;27283;52.504;13.358;2023-03-14T00:29:12;98813.16;;;12.06;80.56
41596;BME280;27283;52.504;13.358;2023-03-14T00:31:44;98805.59;;;11.96;81.25
41596;BME280;27283;52.504;13.358;2023-03-14T00:34:16;98800.91;;;11.85;81.90
41596;BME280;27283;52.504;13.358;2023-03-14T00:36:51;98803.72;;;11.97;81.18
41596;BME280;27283;52.504;13.358;2023-03-14T00:39:23;98790.13;;;11.85;81.66
41596;BME280;27283;52.504;13.358;2023-03-14T00:42:07;98784.06;;;11.89;81.87
41596;BME280;27283;52.504;13.358;2023-03-14T00:44:39;98798.59;;;11.88;81.97
41596;BME280;27283;52.504;13.358;2023-03-14T00:47:11;98794.81;;;11.71;82.60
41596;BME280;27283;52.504;13.358;2023-03-14T00:49:43;98788.75;;;11.76;82.83
41596;BME280;27283;52.504;13.358;2023-03-14T00:52:18;98789.59;;;11.76;82.81
41596;BME280;27283;52.504;13.358;2023-03-14T00:54:53;98784.38;;;11.81;82.45
41596;BME280;27283;52.504;13.358;2023-03-14T00:57:25;98780.34;;;11.65;83.54
41596;BME280;27283;52.504;13.358;2023-03-14T00:59:56;98772.91;;;11.67;83.64
41596;BME280;27283;52.504;13.358;2023-03-14T01:02:32;98757.56;;;11.68;84.02
41596;BME280;27283;52.504;13.358;2023-03-14T01:05:04;98748.56;;;11.56;84.69
41596;BME280;27283;52.504;13.358;2023-03-14T01:07:41;98751.63;;;11.59;84.50
41596;BME280;27283;52.504;13.358;2023-03-14T01:10:13;98740.28;;;11.57;84.31
41596;BME280;27283;52.504;13.358;2023-03-14T01:12:45;98744.78;;;11.38;85.30
41596;BME280;27283;52.504;13.358;2023-03-14T01:15:18;98756.41;;;11.39;85.45
41596;BME280;27283;52.504;13.358;2023-03-14T01:17:50;98766.38;;;11.31;86.54
41596;BME280;27283;52.504;13.358;2023-03-14T01:20:22;98773.13;;;11.41;85.83
41596;BME280;27283;52.504;13.358;2023-03-14T01:23:05;98786.91;;;11.26;86.41
41596;BME280;27283;52.504;13.358;2023-03-14T01:25:41;98806.16;;;11.29;86.59
41596;BME280;27283;52.504;13.358;2023-03-14T01:28:13;98805.66;;;11.07;87.41
41596;BME280;27283;52.504;13.358;2023-03-14T01:30:44;98811.78;;;11.21;87.39
41596;BME280;27283;52.504;13.358;2023-03-14T01:33:17;98812.19;;;11.25;86.74
41596;BME280;27283;52.504;13.358;2023-03-14T01:35:52;98819.84;;;11.21;87.17
41596;BME280;27283;52.504;13.358;2023-03-14T01:38:33;98817.97;;;11.22;86.78
41596;BME280;27283;52.504;13.358;2023-03-14T01:41:06;98813.34;;;11.04;88.25
41596;BME280;27283;52.504;13.358;2023-03-14T01:43:38;98824.97;;;11.29;87.21
41596;BME280;27283;52.504;13.358;2023-03-14T01:46:26;98820.84;;;11.27;86.99
41596;BME280;27283;52.504;13.358;2023-03-14T01:49:04;98832.00;;;11.30;86.72
41596;BME280;27283;52.504;13.358;2023-03-14T01:51:44;98848.47;;;11.41;86.55
41596;BME280;27283;52.504;13.358;2023-03-14T01:54:24;98843.47;;;11.44;86.46
41596;BME280;27283;52.504;13.358;2023-03-14T01:56:59;98829.50;;;11.29;86.87
41596;BME280;27283;52.504;13.358;2023-03-14T01:59:34;98826.91;;;11.15;87.47
41596;BME280;27283;52.504;13.358;2023-03-14T02:02:09;98818.09;;;11.33;86.57
41596;BME280;27283;52.504;13.358;2023-03-14T02:04:45;98811.78;;;11.21;87.41
41596;BME280;27283;52.504;13.358;2023-03-14T02:07:20;98804.34;;;11.23;87.31
41596;BME280;27283;52.504;13.358;2023-03-14T02:09:59;98814.22;;;11.29;86.96
41596;BME280;27283;52.504;13.358;2023-03-14T02:12:33;98792.06;;;11.27;86.75
41596;BME280;27283;52.504;13.358;2023-03-14T02:15:07;98786.31;;;11.24;86.93
41596;BME280;27283;52.504;13.358;2023-03-14T02:17:40;98787.13;;;11.24;87.06
41596;BME280;27283;52.504;13.358;2023-03-14T02:20:25;98791.50;;;11.18;87.69
41596;BME280;27283;52.504;13.358;2023-03-14T02:22:59;98795.63;;;11.21;87.14
41596;BME280;27283;52.504;13.358;2023-03-14T02:25:39;98789.97;;;11.04;88.18
41596;BME280;27283;52.504;13.358;2023-03-14T02:28:17;98791.56;;;11.12;87.42
41596;BME280;27283;52.504;13.358;2023-03-14T02:30:50;98787.88;;;11.06;87.76
41596;BME280;27283;52.504;13.358;2023-03-14T02:33:22;98786.97;;;11.19;87.22
41596;BME280;27283;52.504;13.358;2023-03-14T02:35:57;98784.66;;;11.23;87.03
41596;BME280;27283;52.504;13.358;2023-03-14T02:38:36;98781.84;;;11.11;87.54
41596;BME280;27283;52.504;13.358;2023-03-14T02:41:17;98773.53;;;11.19;86.93
41596;BME280;27283;52.504;13.358;2023-03-14T02:43:52;98780.75;;;11.18;86.69
41596;BME280;27283;52.504;13.358;2023-03-14T02:46:25;98770.44;;;10.84;88.37
41596;BME280;27283;52.504;13.358;2023-03-14T02:49:00;98766.19;;;10.69;89.31
41596;BME280;27283;52.504;13.358;2023-03-14T02:51:34;98758.88;;;10.76;89.09
41596;BME280;27283;52.504;13.358;2023-03-14T02:54:07;98764.66;;;10.80;89.04
41596;BME280;27283;52.504;13.358;2023-03-14T02:56:40;98746.53;;;10.69;89.16
41596;BME280;27283;52.504;13.358;2023-03-14T02:59:14;98735.56;;;10.70;89.27
41596;BME280;27283;52.504;13.358;2023-03-14T03:01:47;98737.44;;;10.70;89.16
41596;BME280;27283;52.504;13.358;2023-03-14T03:04:19;98730.84;;;10.66;89.36
41596;BME280;27283;52.504;13.358;2023-03-14T03:06:51;98720.53;;;10.62;89.13
41596;BME280;27283;52.504;13.358;2023-03-14T03:09:23;98716.22;;;10.55;89.36
41596;BME280;27283;52.504;13.358;2023-03-14T03:11:56;98701.91;;;10.68;89.25
41596;BME280;27283;52.504;13.358;2023-03-14T03:14:30;98698.25;;;10.55;89.65
41596;BME280;27283;52.504;13.358;2023-03-14T03:17:02;98685.56;;;10.62;89.05
41596;BME280;27283;52.504;13.358;2023-03-14T03:19:34;98683.50;;;10.64;88.98
41596;BME280;27283;52.504;13.358;2023-03-14T03:22:06;98686.84;;;10.60;88.94
41596;BME280;27283;52.504;13.358;2023-03-14T03:24:39;98679.22;;;10.57;89.19
41596;BME280;27283;52.504;13.358;2023-03-14T03:27:11;98694.81;;;10.41;90.06
41596;BME280;27283;52.504;13.358;2023-03-14T03:29:45;98692.75;;;10.43;89.55
41596;BME280;27283;52.504;13.358;2023-03-14T03:32:18;98715.91;;;10.38;90.39
41596;BME280;27283;52.504;13.358;2023-03-14T03:34:49;98706.63;;;10.34;90.40
41596;BME280;27283;52.504;13.358;2023-03-14T03:37:23;98711.56;;;10.43;89.60
41596;BME280;27283;52.504;13.358;2023-03-14T03:39:55;98720.41;;;10.44;89.50
41596;BME280;27283;52.504;13.358;2023-03-14T03:42:27;98724.13;;;10.43;89.38
41596;BME280;27283;52.504;13.358;2023-03-14T03:45:02;98718.97;;;10.48;89.28
41596;BME280;27283;52.504;13.358;2023-03-14T03:47:35;98713.44;;;10.36;89.90
41596;BME280;27283;52.504;13.358;2023-03-14T03:50:07;98711.13;;;10.40;89.41
41596;BME280;27283;52.504;13.358;2023-03-14T03:52:39;98696.50;;;10.36;89.90
41596;BME280;27283;52.504;13.358;2023-03-14T03:55:11;98697.34;;;10.23;90.25
41596;BME280;27283;52.504;13.358;2023-03-14T03:57:43;98700.38;;;10.40;89.60
41596;BME280;27283;52.504;13.358;2023-03-14T04:00:18;98695.66;;;10.35;89.15
41596;BME280;27283;52.504;13.358;2023-03-14T04:02:50;98698.78;;;10.25;89.88
41596;BME280;27283;52.504;13.358;2023-03-14T04:05:22;98703.09;;;10.26;89.74
41596;BME280;27283;52.504;13.358;2023-03-14T04:07:54;98718.41;;;10.33;89.20
41596;BME280;27283;52.504;13.358;2023-03-14T04:10:26;98681.84;;;10.25;89.23
41596;BME280;27283;52.504;13.358;2023-03-14T04:12:59;98688.06;;;10.25;89.74
41596;BME280;27283;52.504;13.358;2023-03-14T04:15:33;98701.06;;;10.22;89.49
41596;BME280;27283;52.504;13.358;2023-03-14T04:18:05;98703.19;;;10.13;90.09
41596;BME280;27283;52.504;13.358;2023-03-14T04:20:37;98701.69;;;10.24;89.22
41596;BME280;27283;52.504;13.358;2023-03-14T04:23:09;98691.41;;;10.14;89.40
41596;BME280;27283;52.504;13.358;2023-03-14T04:25:41;98695.69;;;10.22;89.29
41596;BME280;27283;52.504;13.358;2023-03-14T04:28:13;98697.19;;;10.18;89.05
41596;BME280;27283;52.504;13.358;2023-03-14T04:30:47;98683.13;;;10.16;89.65
41596;BME280;27283;52.504;13.358;2023-03-14T04:33:20;98672.56;;;10.21;88.99
41596;BME280;27283;52.504;13.358;2023-03-14T04:35:54;98678.97;;;10.20;88.89
41596;BME280;27283;52.504;13.358;2023-03-14T04:38:26;98664.53;;;10.21;88.57
41596;BME280;27283;52.504;13.358;2023-03-14T04:40:58;98666.63;;;10.12;88.60
41596;BME280;27283;52.504;13.358;2023-03-14T04:43:31;98672.38;;;10.16;88.47
41596;BME280;27283;52.504;13.358;2023-03-14T04:46:06;98658.13;;;10.15;88.25
41596;BME280;27283;52.504;13.358;2023-03-14T04:48:38;98652.72;;;10.22;87.91
41596;BME280;27283;52.504;13.358;2023-03-14T04:51:09;98652.34;;;10.18;87.94
41596;BME280;27283;52.504;13.358;2023-03-14T04:53:42;98641.75;;;10.23;87.44
41596;BME280;27283;52.504;13.358;2023-03-14T04:56:13;98641.53;;;10.25;87.14
41596;BME280;27283;52.504;13.358;2023-03-14T04:58:45;98633.75;;;10.17;87.45
41596;BME280;27283;52.504;13.358;2023-03-14T05:01:20;98645.09;;;10.19;87.26
41596;BME280;27283;52.504;13.358;2023-03-14T05:03:52;98648.63;;;10.19;87.21
41596;BME280;27283;52.504;13.358;2023-03-14T05:06:24;98659.38;;;10.19;86.86
41596;BME280;27283;52.504;13.358;2023-03-14T05:08:56;98655.41;;;10.22;86.55
41596;BME280;27283;52.504;13.358;2023-03-14T05:11:27;98650.69;;;10.17;87.24
41596;BME280;27283;52.504;13.358;2023-03-14T05:14:00;98634.84;;;10.09;87.75
41596;BME280;27283;52.504;13.358;2023-03-14T05:16:34;98639.28;;;10.22;86.34
41596;BME280;27283;52.504;13.358;2023-03-14T05:19:07;98644.66;;;10.22;86.59
41596;BME280;27283;52.504;13.358;2023-03-14T05:21:40;98634.13;;;10.20;86.06
41596;BME280;27283;52.504;13.358;2023-03-14T05:24:12;98627.72;;;10.21;86.10
41596;BME280;27283;52.504;13.358;2023-03-14T05:26:44;98628.38;;;10.17;86.24
41596;BME280;27283;52.504;13.358;2023-03-14T05:29:16;98623.00;;;10.17;86.03
41596;BME280;27283;52.504;13.358;2023-03-14T05:31:51;98622.19;;;10.16;85.74
41596;BME280;27283;52.504;13.358;2023-03-14T05:34:24;98624.84;;;10.23;85.64
41596;BME280;27283;52.504;13.358;2023-03-14T05:36:56;98624.88;;;10.16;86.28
41596;BME280;27283;52.504;13.358;2023-03-14T05:39:28;98633.91;;;10.22;85.67
41596;BME280;27283;52.504;13.358;2023-03-14T05:42:00;98620.59;;;10.08;86.35
41596;BME280;27283;52.504;13.358;2023-03-14T05:44:32;98620.91;;;10.25;85.16
41596;BME280;27283;52.504;13.358;2023-03-14T05:47:07;98629.56;;;10.34;83.93
41596;BME280;27283;52.504;13.358;2023-03-14T05:49:40;98630.16;;;10.29;83.94
41596;BME280;27283;52.504;13.358;2023-03-14T05:52:12;98629.56;;;10.27;84.45
41596;BME280;27283;52.504;13.358;2023-03-14T05:54:44;98631.81;;;10.31;83.52
41596;BME280;27283;52.504;13.358;2023-03-14T05:57:16;98631.22;;;10.28;83.57
41596;BME280;27283;52.504;13.358;2023-03-14T05:59:49;98625.22;;;10.33;83.16
41596;BME280;27283;52.504;13.358;2023-03-14T06:02:25;98635.69;;;10.41;82.78
41596;BME280;27283;52.504;13.358;2023-03-14T06:04:57;98629.56;;;10.34;82.11
41596;BME280;27283;52.504;13.358;2023-03-14T06:07:29;98626.00;;;10.40;82.14
41596;BME280;27283;52.504;13.358;2023-03-14T06:10:02;98631.41;;;10.34;82.08
41596;BME280;27283;52.504;13.358;2023-03-14T06:12:34;98624.94;;;10.41;81.85
41596;BME280;27283;52.504;13.358;2023-03-14T06:15:08;98629.13;;;10.37;81.33
41596;BME280;27283;52.504;13.358;2023-03-14T06:17:43;98629.19;;;10.56;80.15
41596;BME280;27283;52.504;13.358;2023-03-14T06:20:15;98622.78;;;10.57;79.36
41596;BME280;27283;52.504;13.358;2023-03-14T06:22:47;98614.66;;;10.63;79.47
41596;BME280;27283;52.504;13.358;2023-03-14T06:25:20;98626.00;;;10.66;78.91
41596;BME280;27283;52.504;13.358;2023-03-14T06:27:52;98628.09;;;10.63;79.29
41596;BME280;27283;52.504;13.358;2023-03-14T06:30:24;98618.94;;;10.71;78.36
41596;BME280;27283;52.504;13.358;2023-03-14T06:32:59;98628.78;;;10.59;78.30
41596;BME280;27283;52.504;13.358;2023-03-14T06:35:32;98625.53;;;10.75;78.05
41596;BME280;27283;52.504;13.358;2023-03-14T06:38:04;98632.97;;;10.73;77.79
41596;BME280;27283;52.504;13.358;2023-03-14T06:40:37;98624.59;;;10.88;77.00
41596;BME280;27283;52.504;13.358;2023-03-14T06:43:09;98647.25;;;10.99;76.89
41596;BME280;27283;52.504;13.358;2023-03-14T06:45:41;98646.31;;;10.87;77.35
41596;BME280;27283;52.504;13.358;2023-03-14T06:48:16;98648.56;;;11.15;75.68
41596;BME280;27283;52.504;13.358;2023-03-14T06:50:48;98654.06;;;11.27;74.84
41596;BME280;27283;52.504;13.358;2023-03-14T06:53:21;98661.34;;;11.20;75.03
41596;BME280;27283;52.504;13.358;2023-03-14T06:55:53;98664.00;;;11.45;74.13
41596;BME280;27283;52.504;13.358;2023-03-14T06:58:24;98670.31;;;11.57;73.66
41596;BME280;27283;52.504;13.358;2023-03-14T07:00:56;98663.34;;;11.68;73.97
41596;BME280;27283;52.504;13.358;2023-03-14T07:03:31;98664.47;;;11.79;72.72
41596;BME280;27283;52.504;13.358;2023-03-14T07:06:04;98671.16;;;11.95;72.18
41596;BME280;27283;52.504;13.358;2023-03-14T07:08:35;98675.06;;;11.99;72.82
41596;BME280;27283;52.504;13.358;2023-03-14T07:11:08;98675.53;;;12.08;71.66
41596;BME280;27283;52.504;13.358;2023-03-14T07:13:41;98679.81;;;11.97;71.99
41596;BME280;27283;52.504;13.358;2023-03-14T07:16:13;98680.56;;;11.85;72.11
41596;BME280;27283;52.504;13.358;2023-03-14T07:18:48;98674.06;;;11.93;71.84
41596;BME280;27283;52.504;13.358;2023-03-14T07:21:21;98674.56;;;11.83;72.51
41596;BME280;27283;52.504;13.358;2023-03-14T07:23:52;98685.94;;;11.85;72.59
41596;BME280;27283;52.504;13.358;2023-03-14T07:26:24;98691.34;;;11.85;72.31
41596;BME280;27283;52.504;13.358;2023-03-14T07:28:57;98680.25;;;11.75;72.80
41596;BME280;27283;52.504;13.358;2023-03-14T07:31:32;98689.44;;;11.86;72.02
41596;BME280;27283;52.504;13.358;2023-03-14T07:34:06;98696.16;;;12.02;71.83
41596;BME280;27283;52.504;13.358;2023-03-14T07:36:38;98698.75;;;12.09;71.08
41596;BME280;27283;52.504;13.358;2023-03-14T07:39:10;98692.59;;;12.20;70.53
41596;BME280;27283;52.504;13.358;2023-03-14T07:41:42;98704.91;;;11.97;70.97
41596;BME280;27283;52.504;13.358;2023-03-14T07:44:14;98694.63;;;12.06;71.58
41596;BME280;27283;52.504;13.358;2023-03-14T07:46:46;98706.25;;;12.07;71.05
41596;BME280;27283;52.504;13.358;2023-03-14T07:49:21;98699.63;;;11.84;71.50
41596;BME280;27283;52.504;13.358;2023-03-14T07:51:53;98712.75;;;11.99;71.30
41596;BME280;27283;52.504;13.358;2023-03-14T07:54:25;98709.44;;;11.97;71.58
41596;BME280;27283;52.504;13.358;2023-03-14T07:56:57;98702.94;;;12.04;71.39
41596;BME280;27283;52.504;13.358;2023-03-14T07:59:29;98697.84;;;12.15;71.08
41596;BME280;27283;52.504;13.358;2023-03-14T08:02:02;98698.19;;;12.37;69.90
41596;BME280;27283;52.504;13.358;2023-03-14T08:04:41;98684.69;;;12.67;69.17
41596;BME280;27283;52.504;13.358;2023-03-14T08:07:13;98689.91;;;12.92;67.76
41596;BME280;27283;52.504;13.358;2023-03-14T08:09:45;98673.75;;;12.92;68.12
41596;BME280;27283;52.504;13.358;2023-03-14T08:12:18;98673.63;;;12.99;66.71
41596;BME280;27283;52.504;13.358;2023-03-14T08:14:50;98672.31;;;12.90;67.51
41596;BME280;27283;52.504;13.358;2023-03-14T08:17:23;98669.03;;;12.88;68.63
41596;BME280;27283;52.504;13.358;2023-03-14T08:19:58;98669.38;;;12.91;67.07
41596;BME280;27283;52.504;13.358;2023-03-14T08:22:32;98661.88;;;12.93;67.09
41596;BME280;27283;52.504;13.358;2023-03-14T08:25:05;98675.34;;;12.70;67.80
41596;BME280;27283;52.504;13.358;2023-03-14T08:27:37;98670.19;;;12.92;67.43
41596;BME280;27283;52.504;13.358;2023-03-14T08:30:14;98679.00;;;12.99;67.50
41596;BME280;27283;52.504;13.358;2023-03-14T08:32:47;98679.72;;;13.06;67.37
41596;BME280;27283;52.504;13.358;2023-03-14T08:35:22;98678.22;;;13.10;67.14
41596;BME280;27283;52.504;13.358;2023-03-14T08:37:54;98679.72;;;13.06;66.90
41596;BME280;27283;52.504;13.358;2023-03-14T08:40:27;98683.72;;;13.04;66.78
41596;BME280;27283;52.504;13.358;2023-03-14T08:42:59;98693.81;;;13.08;67.36
41596;BME280;27283;52.504;13.358;2023-03-14T08:45:31;98686.16;;;13.05;66.77
41596;BME280;27283;52.504;13.358;2023-03-14T08:48:04;98689.72;;;13.06;67.08
41596;BME280;27283;52.504;13.358;2023-03-14T08:50:38;98692.84;;;13.03;67.70
41596;BME280;27283;52.504;13.358;2023-03-14T08:53:11;98691.66;;;12.87;68.12
41596;BME280;27283;52.504;13.358;2023-03-14T08:55:43;98704.69;;;12.90;67.77
41596;BME280;27283;52.504;13.358;2023-03-14T08:58:16;98700.47;;;12.94;65.99
41596;BME280;27283;52.504;13.358;2023-03-14T09:00:49;98695.47;;;12.67;67.12
41596;BME280;27283;52.504;13.358;2023-03-14T09:03:21;98703.47;;;12.74;67.26
41596;BME280;27283;52.504;13.358;2023-03-14T09:06:10;98704.88;;;12.76;68.22
41596;BME280;27283;52.504;13.358;2023-03-14T09:08:42;98694.91;;;12.77;67.82
41596;BME280;27283;52.504;13.358;2023-03-14T09:11:14;98700.88;;;12.67;67.46
41596;BME280;27283;52.504;13.358;2023-03-14T09:13:47;98678.19;;;12.99;66.54
41596;BME280;27283;52.504;13.358;2023-03-14T09:16:20;98674.03;;;13.50;65.35
41596;BME280;27283;52.504;13.358;2023-03-14T09:18:52;98673.13;;;13.97;64.42
41596;BME280;27283;52.504;13.358;2023-03-14T09:21:30;98676.38;;;14.68;61.62
41596;BME280;27283;52.504;13.358;2023-03-14T09:24:03;98670.69;;;15.55;59.97
41596;BME280;27283;52.504;13.358;2023-03-14T09:26:38;98671.22;;;16.62;55.11
41596;BME280;27283;52.504;13.358;2023-03-14T09:29:11;98656.25;;;17.20;52.11
41596;BME280;27283;52.504;13.358;2023-03-14T09:31:43;98654.03;;;18.12;48.80
41596;BME280;27283;52.504;13.358;2023-03-14T09:34:15;98659.53;;;18.28;51.44
41596;BME280;27283;52.504;13.358;2023-03-14T09:36:50;98660.38;;;18.38;48.94
41596;BME280;27283;52.504;13.358;2023-03-14T09:39:22;98659.13;;;18.87;48.80
41596;BME280;27283;52.504;13.358;2023-03-14T09:41:56;98659.56;;;18.43;47.95
41596;BME280;27283;52.504;13.358;2023-03-14T09:44:36;98660.16;;;17.87;48.78
41596;BME280;27283;52.504;13.358;2023-03-14T09:47:12;98667.94;;;17.20;49.46
41596;BME280;27283;52.504;13.358;2023-03-14T09:49:48;98663.16;;;16.45;53.06
41596;BME280;27283;52.504;13.358;2023-03-14T09:52:26;98662.63;;;15.21;54.68
41596;BME280;27283;52.504;13.358;2023-03-14T09:55:04;98656.31;;;15.15;56.12
41596;BME280;27283;52.504;13.358;2023-03-14T09:57:36;98658.97;;;14.93;56.71
41596;BME280;27283;52.504;13.358;2023-03-14T10:00:16;98666.00;;;14.77;58.64
41596;BME280;27283;52.504;13.358;2023-03-14T10:02:53;98670.50;;;14.60;58.28
41596;BME280;27283;52.504;13.358;2023-03-14T10:05:26;98668.94;;;14.47;57.79
41596;BME280;27283;52.504;13.358;2023-03-14T10:08:01;98664.56;;;14.29;59.36
41596;BME280;27283;52.504;13.358;2023-03-14T10:10:33;98675.38;;;14.29;57.59
41596;BME280;27283;52.504;13.358;2023-03-14T10:13:14;98674.69;;;14.22;58.20
41596;BME280;27283;52.504;13.358;2023-03-14T10:15:50;98670.00;;;14.17;59.13
41596;BME280;27283;52.504;13.358;2023-03-14T10:18:23;98680.00;;;14.16;59.35
41596;BME280;27283;52.504;13.358;2023-03-14T10:21:09;98671.59;;;14.01;60.71
41596;BME280;27283;52.504;13.358;2023-03-14T10:23:54;98669.81;;;13.95;60.76
41596;BME280;27283;52.504;13.358;2023-03-14T10:26:27;98665.03;;;13.85;59.54
41596;BME280;27283;52.504;13.358;2023-03-14T10:29:03;98667.69;;;14.09;58.37
41596;BME280;27283;52.504;13.358;2023-03-14T10:31:48;98667.94;;;14.07;57.59
41596;BME280;27283;52.504;13.358;2023-03-14T10:34:28;98670.66;;;13.95;60.20
41596;BME280;27283;52.504;13.358;2023-03-14T10:37:07;98673.97;;;13.86;59.10
41596;BME280;27283;52.504;13.358;2023-03-14T10:39:46;98667.19;;;13.83;58.78
41596;BME280;27283;52.504;13.358;2023-03-14T10:42:21;98676.47;;;13.63;60.11
41596;BME280;27283;52.504;13.358;2023-03-14T10:45:01;98674.81;;;13.74;57.92
41596;BME280;27283;52.504;13.358;2023-03-14T10:47:48;98668.78;;;13.84;58.65
41596;BME280;27283;52.504;13.358;2023-03-14T10:50:26;98670.78;;;13.89;58.40
41596;BME280;27283;52.504;13.358;2023-03-14T10:53:02;98682.31;;;13.84;59.78
41596;BME280;27283;52.504;13.358;2023-03-14T10:55:45;98676.13;;;13.60;59.99
41596;BME280;27283;52.504;13.358;2023-03-14T10:58:23;98673.06;;;13.68;58.89
41596;BME280;27283;52.504;13.358;2023-03-14T11:01:09;98674.44;;;13.71;58.44
41596;BME280;27283;52.504;13.358;2023-03-14T11:03:51;98677.53;;;13.74;58.72
41596;BME280;27283;52.504;13.358;2023-03-14T11:06:31;98670.34;;;13.80;57.17
41596;BME280;27283;52.504;13.358;2023-03-14T11:09:16;98682.31;;;13.84;58.27
41596;BME280;27283;52.504;13.358;2023-03-14T11:11:54;98671.25;;;13.86;59.05
41596;BME280;27283;52.504;13.358;2023-03-14T11:14:33;98672.66;;;13.88;58.93
41596;BME280;27283;52.504;13.358;2023-03-14T11:17:14;98664.34;;;13.78;57.54
41596;BME280;27283;52.504;13.358;2023-03-14T11:20:01;98663.63;;;13.82;58.24
41596;BME280;27283;52.504;13.358;2023-03-14T11:22:40;98672.53;;;13.95;58.50
41596;BME280;27283;52.504;13.358;2023-03-14T11:25:23;98666.88;;;13.96;58.28
41596;BME280;27283;52.504;13.358;2023-03-14T11:28:09;98670.63;;;14.07;58.47
41596;BME280;27283;52.504;13.358;2023-03-14T11:30:49;98660.56;;;13.91;58.82
41596;BME280;27283;52.504;13.358;2023-03-14T11:33:25;98655.03;;;13.97;58.74
41596;BME280;27283;52.504;13.358;2023-03-14T11:36:04;98657.50;;;13.87;58.93
41596;BME280;27283;52.504;13.358;2023-03-14T11:38:40;98659.69;;;13.61;60.62
41596;BME280;27283;52.504;13.358;2023-03-14T11:41:18;98658.00;;;13.72;61.18
41596;BME280;27283;52.504;13.358;2023-03-14T11:43:56;98649.16;;;13.89;60.92
41596;BME280;27283;52.504;13.358;2023-03-14T11:46:32;98662.84;;;14.11;60.07
41596;BME280;27283;52.504;13.358;2023-03-14T11:49:13;98658.31;;;13.99;60.20
41596;BME280;27283;52.504;13.358;2023-03-14T11:51:53;98659.31;;;14.22;59.84
41596;BME280;27283;52.504;13.358;2023-03-14T11:54:34;98667.09;;;14.07;60.94
41596;BME280;27283;52.504;13.358;2023-03-14T11:57:14;98671.94;;;14.05;61.49
41596;BME280;27283;52.504;13.358;2023-03-14T11:59:54;98655.19;;;13.79;62.88
41596;BME280;27283;52.504;13.358;2023-03-14T12:02:35;98655.97;;;13.91;61.70
41596;BME280;27283;52.504;13.358;2023-03-14T12:08:39;98659.22;;;14.05;62.03
41596;BME280;27283;52.504;13.358;2023-03-14T12:11:15;98644.47;;;14.25;63.27
41596;BME280;27283;52.504;13.358;2023-03-14T12:13:51;98645.81;;;14.39;61.71
41596;BME280;27283;52.504;13.358;2023-03-14T12:16:32;98642.34;;;14.56;61.15
41596;BME280;27283;52.504;13.358;2023-03-14T12:22:22;98646.50;;;14.46;60.44
41596;BME280;27283;52.504;13.358;2023-03-14T12:25:00;98632.59;;;14.26;61.81
41596;BME280;27283;52.504;13.358;2023-03-14T12:28:02;98636.13;;;14.26;60.70
41596;BME280;27283;52.504;13.358;2023-03-14T12:30:37;98639.75;;;14.03;60.62
41596;BME280;27283;52.504;13.358;2023-03-14T12:33:31;98635.03;;;14.10;61.32
41596;BME280;27283;52.504;13.358;2023-03-14T12:36:15;98635.88;;;14.28;63.57
41596;BME280;27283;52.504;13.358;2023-03-14T12:39:00;98638.28;;;14.41;62.04
41596;BME280;27283;52.504;13.358;2023-03-14T12:41:39;98634.59;;;14.47;60.14
41596;BME280;27283;52.504;13.358;2023-03-14T12:44:41;98625.38;;;14.43;61.47
41596;BME280;27283;52.504;13.358;2023-03-14T12:47:43;98630.34;;;14.63;61.51
41596;BME280;27283;52.504;13.358;2023-03-14T12:50:26;98626.44;;;14.59;63.09
41596;BME280;27283;52.504;13.358;2023-03-14T12:56:07;98621.41;;;14.97;60.35
41596;BME280;27283;52.504;13.358;2023-03-14T12:58:44;98619.75;;;14.96;60.70
41596;BME280;27283;52.504;13.358;2023-03-14T13:01:20;98643.59;;;14.65;62.25
41596;BME280;27283;52.504;13.358;2023-03-14T13:03:55;98633.84;;;14.35;64.46
41596;BME280;27283;52.504;13.358;2023-03-14T13:06:50;98630.75;;;13.74;71.14
41596;BME280;27283;52.504;13.358;2023-03-14T13:09:52;98638.91;;;13.26;73.57
41596;BME280;27283;52.504;13.358;2023-03-14T13:12:29;98633.50;;;13.03;76.83
41596;BME280;27283;52.504;13.358;2023-03-14T13:15:14;98632.09;;;12.88;79.50
41596;BME280;27283;52.504;13.358;2023-03-14T13:17:49;98629.84;;;12.85;78.87
41596;BME280;27283;52.504;13.358;2023-03-14T13:20:30;98643.25;;;12.50;86.23
41596;BME280;27283;52.504;13.358;2023-03-14T13:23:19;98628.13;;;12.37;87.83
41596;BME280;27283;52.504;13.358;2023-03-14T13:25:53;98615.59;;;12.43;87.52
41596;BME280;27283;52.504;13.358;2023-03-14T13:28:26;98610.72;;;12.63;88.49
41596;BME280;27283;52.504;13.358;2023-03-14T13:31:02;98602.66;;;12.87;85.01
41596;BME280;27283;52.504;13.358;2023-03-14T13:33:34;98594.34;;;13.12;86.19
41596;BME280;27283;52.504;13.358;2023-03-14T13:36:09;98585.78;;;13.15;79.28
41596;BME280;27283;52.504;13.358;2023-03-14T13:38:44;98584.94;;;13.03;80.87
41596;BME280;27283;52.504;13.358;2023-03-14T13:41:17;98583.19;;;12.85;80.98